Latest Coastal Weather Observations for Esperance

IDW60701

Issued at 10:35 pm WST Thursday 30 October 2014 (issued every 10 minutes, with the page automatically refreshed every 10 minutes)

About coastal observations | Map of coastal stations | Coastal observations for WA | Marine services | Other Formats
Station Details ID: 009789 Name: ESPERANCE Lat: -33.83 Lon: 121.89 Height: 25.0 m
Data from the previous 72 hours. | See also: Recent months at Esperance
Date/Time
WST
Temp

°C
Wind Pressure Rain
since 9am
mm
Weather Cloud Vis
km
Sea
Height
m
Swell
Dir
 
Speed
knots
Gust
knots
hPa Trend Height
m
Period
s
Dir
30/10:30pm 16.6 SW 4 6 1010.8 - 0.0 - Cloudy - - - - -
30/10:00pm 16.6 SSW 5 9 1010.6 - 0.0 - Cloudy - - - - -
30/09:30pm 16.3 S 7 10 1010.5 - 0.0 - Partly cloudy - - - - -
30/09:00pm 16.1 S 7 10 1010.4 R 0.0 - - - - - - -
30/08:30pm 16.0 SSE 6 7 1010.2 - 0.0 - - - - - - -
30/08:00pm 16.2 SSE 6 9 1010.1 - 0.0 - - 10 - - - -
30/07:30pm 16.5 SSE 7 9 1009.8 - 0.0 - - 10 - - - -
30/07:00pm 16.6 SE 8 10 1009.5 - 0.0 - - 10 - - - -
30/06:30pm 16.4 ESE 8 10 1009.2 - 0.0 - - 10 - - - -
30/06:00pm 16.6 SE 8 11 1009.1 F 0.0 Fine Mostly clear 30 - - - -
30/05:30pm 17.1 SE 10 14 1008.8 - 0.0 - - 10 - - - -
30/05:00pm 17.5 SSE 11 15 1008.9 - 0.0 - - 10 - - - -
30/04:30pm 17.3 SSE 13 16 1008.9 - 0.0 - - 10 - - - -
30/04:00pm 17.7 SSE 13 16 1009.1 - 0.0 - - 10 - - - -
30/03:30pm 18.4 S 11 15 1009.3 - 0.0 - Mostly clear 10 - - - -
30/03:00pm 18.2 SSE 11 14 1009.5 F 0.0 Fine Mostly clear 30 - - - -
30/02:30pm 18.2 SSE 10 13 1009.8 - 0.0 - Mostly clear 10 - - - -
30/02:00pm 18.0 SSE 11 16 1010.1 - 0.0 - Partly cloudy 10 - - - -
30/01:30pm 18.2 SE 11 16 1010.1 - 0.0 - Mostly clear 10 - - - -
30/01:00pm 18.1 SE 12 17 1010.5 - 0.0 - Partly cloudy 10 - - - -
30/12:30pm 18.3 SE 11 14 1010.8 - 0.0 - Partly cloudy 10 - - - -
30/12:00pm 18.7 SSE 10 14 1011.1 F 0.0 Fine Partly cloudy 30 - - - -
30/11:30am 18.9 SSE 8 15 1011.3 - 0.0 - Partly cloudy 10 - - - -
30/11:00am 19.8 S 7 11 1011.7 - 0.0 - Partly cloudy 10 - - - -
30/10:30am 19.8 S 11 15 1011.9 - 0.0 - Mostly clear 10 - - - -
30/10:00am 18.8 S 9 12 1012.6 - 0.0 - Partly cloudy 10 - - - -
30/09:30am 18.4 S 9 12 1012.8 - 0.0 - Partly cloudy 10 - - - -
30/09:00am 18.2 S 8 12 1012.9 F 0.0 Fine Mostly cloudy 25 - - - -
30/08:30am 18.3 S 7 9 1012.4 - 0.0 - Cloudy 10 - - - -
30/08:00am 18.2 SSW 5 8 1012.7 - 0.0 - Cloudy 10 - - - -
30/07:30am 17.5 SSW 3 4 1013.2 - 0.0 - Cloudy 10 - - - -
30/07:00am 16.9 S 4 5 1013.5 - 0.0 - Mostly clear 10 - - - -
30/06:30am 16.6 W 4 5 1013.9 - 0.0 - Cloudy 10 - - - -
30/06:00am 16.8 SW 5 7 1013.2 F 0.0 Fine Cloudy 25 - - - -
30/05:30am 16.7 SW 5 8 1013.0 - 0.0 - Cloudy 10 - - - -
30/05:00am 16.8 S 7 10 1012.6 - 0.0 - Cloudy 10 - - - -
30/04:30am 16.9 S 7 10 1012.6 - 0.0 - Cloudy 10 - - - -
30/04:00am 17.0 S 7 9 1012.1 - 0.0 - Cloudy 10 - - - -
30/03:30am 16.9 S 6 8 1012.4 - 0.0 - Partly cloudy 10 - - - -
30/03:00am 17.0 S 5 8 1012.6 R 0.0 - Mostly cloudy 10 - - - -
30/02:30am 17.0 S 7 10 1012.4 - 0.0 - Cloudy 10 - - - -
30/02:00am 17.0 S 7 11 1012.4 - 0.0 - Cloudy 10 - - - -
30/01:30am 17.2 S 8 12 1012.5 - 0.0 - Cloudy 10 - - - -
30/01:00am 17.3 S 9 11 1012.5 - 0.0 - Partly cloudy 10 - - - -
30/12:30am 17.3 S 8 12 1012.5 - 0.0 - Partly cloudy 10 - - - -
30/12:01am 17.3 S 9 13 1012.6 - 0.0 - Partly cloudy 10 - - - -
30/12:00am 17.3 S 9 13 1012.6 F 0.0 - Cloudy 10 - - - -
 
Date/Time
WST
Temp

°C
Wind Pressure Rain
since 9am
mm
Weather Cloud Vis
km
Sea
Height
m
Swell
Dir
 
Speed
knots
Gust
knots
hPa Trend Height
m
Period
s
Dir
29/11:51pm 17.3 S 8 11 1012.8 - 0.0 - Partly cloudy 10 - - - -
29/11:49pm 17.3 SSE 8 12 1012.9 - 0.0 - Partly cloudy 10 - - - -
29/11:30pm 17.4 SSE 9 12 1012.9 - 0.0 - Partly cloudy 10 - - - -
29/11:24pm 17.4 SSE 7 12 1013.0 - 0.0 - Partly cloudy 10 - - - -
29/11:00pm 17.5 S 9 11 1013.1 - 0.0 - Partly cloudy 10 - - - -
29/10:30pm 17.6 SE 10 13 1013.2 - 0.0 - Partly cloudy 10 - - - -
29/10:00pm 17.6 SSE 8 11 1013.8 - 0.0 - Partly cloudy 10 - - - -
29/09:38pm 17.6 SSE 10 13 1013.4 - 0.0 - Partly cloudy 10 - - - -
29/09:30pm 17.6 SSE 9 12 1013.7 - 0.0 - Partly cloudy 10 - - - -
29/09:24pm 17.6 SSE 7 10 1013.7 - 0.0 - Partly cloudy 9 - - - -
29/09:21pm 17.6 SSE 7 9 1013.8 - 0.0 - Partly cloudy 9 - - - -
29/09:00pm 17.3 SSE 8 11 1013.7 F 0.0 - Cloudy 9 - - - -
29/08:56pm 17.4 SSE 8 11 1013.8 - 0.0 - Partly cloudy 9 - - - -
29/08:42pm 17.5 SSE 8 10 1013.9 - 0.0 - Partly cloudy 9 - - - -
29/08:30pm 17.6 SE 9 11 1013.8 - 0.0 - Partly cloudy 9 - - - -
29/08:00pm 17.7 SSE 9 12 1013.8 - 0.0 - Mostly clear 9 - - - -
29/07:45pm 17.7 SSE 10 13 1013.9 - 0.0 - Mostly clear 9 - - - -
29/07:30pm 17.5 SSE 11 15 1013.6 - 0.0 Drizzle Partly cloudy 6 - - - -
29/07:00pm 17.8 SSE 11 15 1013.7 - 0.0 - Mostly clear 9 - - - -
29/06:30pm 18.0 SSE 10 14 1013.7 - 0.0 - Mostly clear 10 - - - -
29/06:00pm 17.9 SSE 12 17 1013.3 R 0.0 Haze Mostly cloudy 12 - - - -
29/05:51pm 18.0 SSE 12 15 1013.3 - 0.0 - Mostly clear 10 - - - -
29/05:30pm 18.0 SSE 12 15 1013.2 - 0.0 - Mostly clear 10 - - - -
29/05:05pm 18.2 SSE 12 15 1013.1 - 0.0 - Mostly clear 10 - - - -
29/05:00pm 18.1 SSE 13 16 1012.9 - 0.0 - Partly cloudy 9 - - - -
29/04:30pm 18.6 SSE 14 18 1012.5 - 0.0 - Partly cloudy 9 - - - -
29/04:00pm 18.8 SSE 14 18 1012.5 - 0.0 - Mostly clear 9 - - - -
29/03:30pm 19.2 SSE 12 16 1012.6 - 0.0 - Mostly clear 10 - - - -
29/03:09pm 19.8 SSE 12 18 1012.6 - 0.0 - Partly cloudy 10 - - - -
29/03:00pm 19.3 SSE 12 17 1012.4 R 0.0 Haze Mostly cloudy 9 - - - -
29/02:30pm 20.4 S 11 16 1012.6 - 0.0 - - 10 - - - -
29/02:00pm 20.2 S 9 12 1012.8 - 0.0 - Partly cloudy 10 - - - -
29/01:30pm 21.6 S 7 10 1012.5 - 0.0 - Partly cloudy 10 - - - -
29/01:00pm 21.1 SSE 5 7 1012.8 - 0.0 - - 10 - - - -
29/12:30pm 21.2 SSE 8 10 1012.5 - 0.0 - - 10 - - - -
29/12:00pm 20.9 SSE 12 15 1012.4 F 0.0 Haze Mostly cloudy 25 - - - -
29/11:30am 22.2 SSE 10 14 1012.7 - 0.0 - - 10 - - - -
29/11:00am 22.4 SSE 10 13 1013.0 - 0.0 - - 10 - - - -
29/10:30am 23.7 SSE 7 10 1013.2 - 0.0 - - 10 - - - -
29/10:00am 22.9 SE 7 8 1013.5 - 0.0 - - 10 - - - -
29/09:30am 21.6 SE 7 8 1013.9 - 0.0 - - 10 - - - -
29/09:00am 21.1 ESE 5 8 1014.2 F 0.0 Haze Mostly cloudy 20 - - - -
29/08:30am 19.8 ESE 7 9 1014.1 - 0.0 - - 10 - - - -
29/08:00am 19.8 ESE 6 7 1014.2 - 0.0 - - 10 - - - -
29/07:30am 18.3 ENE 5 7 1014.6 - 0.0 - - 10 - - - -
29/07:00am 17.7 E 5 7 1014.3 - 0.0 - - 10 - - - -
29/06:30am 16.8 E 6 7 1014.5 - 0.0 - - 10 - - - -
29/06:00am 16.7 E 4 6 1014.5 F 0.0 Haze Mostly cloudy 15 - - - -
29/05:30am 16.0 ESE 5 7 1014.5 - 0.0 - - 10 - - - -
29/05:00am 16.0 ESE 6 7 1014.2 - 0.0 - - 10 - - - -
29/04:30am 16.2 ESE 7 10 1014.1 - 0.0 - - 10 - - - -
29/04:00am 16.0 ESE 7 10 1014.2 - 0.0 - - 10 - - - -
29/03:30am 15.8 ESE 7 11 1014.2 - 0.0 - - 10 - - - -
29/03:00am 15.7 ESE 7 10 1014.0 R 0.0 - Cloudy 10 - - - -
29/02:30am 15.6 ESE 8 10 1014.0 - 0.0 - - 10 - - - -
29/02:00am 15.5 ESE 7 8 1014.2 - 0.0 - - 10 - - - -
29/01:30am 15.6 ESE 6 9 1014.2 - 0.0 - - 10 - - - -
29/01:00am 16.0 ESE 6 8 1014.4 - 0.0 - - 10 - - - -
29/12:30am 16.2 ESE 7 9 1014.3 - 0.0 - - 10 - - - -
29/12:00am 16.2 ESE 7 9 1014.6 F 0.0 - Cloudy 10 - - - -
 
Date/Time
WST
Temp

°C
Wind Pressure Rain
since 9am
mm
Weather Cloud Vis
km
Sea
Height
m
Swell
Dir
 
Speed
knots
Gust
knots
hPa Trend Height
m
Period
s
Dir
28/11:30pm 16.0 ESE 6 7 1014.9 - 0.0 - - 10 - - - -
28/11:00pm 16.2 ESE 6 8 1015.1 - 0.0 - - 10 - - - -
28/10:30pm 16.0 E 6 8 1015.2 - 0.0 - - 10 - - - -
28/10:00pm 16.0 E 5 7 1015.3 - 0.0 - - 10 - - - -
28/09:30pm 16.2 ESE 5 7 1015.5 - 0.0 - - 10 - - - -
28/09:00pm 16.4 E 6 9 1015.8 F 0.0 - Cloudy 9 - - - -
28/08:30pm 16.6 E 8 11 1016.1 - 0.0 - - 10 - - - -
28/08:00pm 16.7 ESE 8 12 1016.3 - 0.0 - - 10 - - - -
28/07:30pm 16.6 E 8 12 1016.4 - 0.0 - - 10 - - - -
28/07:00pm 16.8 ESE 10 15 1016.5 - 0.0 - - 10 - - - -
28/06:30pm 16.9 ESE 13 17 1016.2 - 0.0 - - 10 - - - -
28/06:00pm 17.3 ESE 12 19 1016.2 F 0.0 Haze Mostly cloudy 20 - - - -
28/05:30pm 17.8 ESE 12 17 1016.0 - 0.0 - - 10 - - - -
28/05:00pm 18.2 ESE 15 20 1016.1 - 0.0 - - 10 - - - -
28/04:30pm 18.9 ESE 15 21 1016.1 - 0.0 - - 10 - - - -
28/04:00pm 19.6 SE 13 19 1016.2 - 0.0 - - 10 - - - -
28/03:30pm 19.9 ESE 14 19 1016.3 - 0.0 - - 10 - - - -
28/03:00pm 19.6 SE 15 20 1016.2 F 0.0 Fine Partly cloudy 30 - - - -
28/02:30pm 19.5 SE 14 19 1016.4 - 0.0 - - 10 - - - -
28/02:00pm 19.1 SSE 16 20 1016.9 - 0.0 - - 10 - - - -
28/01:30pm 19.1 SE 16 19 1017.6 - 0.0 - - 10 - - - -
28/01:00pm 18.7 SSE 14 19 1018.0 - 0.0 - - 10 - - - -
28/12:30pm 19.7 SE 15 19 1018.4 - 0.0 - - 10 - - - -
28/12:00pm 18.8 SSE 13 16 1018.8 F 0.0 Fine Partly cloudy 30 - - - -
28/11:30am 18.4 SSE 13 16 1019.3 - 0.0 - - 10 - - - -
28/11:00am 19.9 SE 9 12 1019.8 - 0.0 - Mostly clear 10 - - - -
28/10:30am 18.8 SE 8 10 1020.3 - 0.0 - Mostly clear 10 - - - -
28/10:00am 18.0 SE 7 10 1020.7 - 0.0 - Mostly clear 10 - - - -
28/09:30am 17.5 SSE 9 12 1021.0 - 0.0 - Mostly clear 10 - - - -
28/09:00am 17.7 SE 7 9 1021.4 F 0.0 Fine Mostly clear 25 - - - -
28/08:30am 16.9 ENE 2 5 1021.5 - - - Partly cloudy 10 - - - -
28/08:00am 17.4 N 5 7 1021.8 - - - Partly cloudy 10 - - - -
28/07:30am 16.1 N 7 9 1021.8 - - - Mostly cloudy 10 - - - -
28/07:00am 14.9 N 3 5 1022.0 - - - Mostly cloudy 10 - - - -
28/06:30am 14.0 N 2 4 1021.9 - - - Mostly cloudy 10 - - - -
28/06:00am 13.2 N 4 5 1021.8 F - Haze Mostly cloudy 20 - - - -
28/05:30am 12.7 CALM 0 1 1021.7 - - - Cloudy 10 - - - -
28/05:00am 12.4 N 5 6 1021.5 - - - Cloudy 10 - - - -
28/04:30am 12.0 CALM 0 0 1021.5 - - - Cloudy 10 - - - -
28/04:00am 11.7 CALM 0 0 1021.4 - - - Cloudy 10 - - - -
28/03:30am 11.7 CALM 0 0 1021.4 - - - Cloudy 10 - - - -
28/03:00am 11.6 NNW 3 4 1021.5 S 0.0 - Cloudy 10 - - - -
28/02:30am 11.4 N 4 4 1021.6 - - - Partly cloudy 10 - - - -
28/02:00am 11.4 N 3 4 1021.6 - - - - 10 - - - -
28/01:30am 11.6 N 4 5 1021.7 - - - - 10 - - - -
28/01:00am 11.7 N 5 6 1021.9 - - - - 10 - - - -
28/12:30am 11.8 N 6 7 1021.8 - - - - 10 - - - -
28/12:00am 11.9 N 5 7 1022.2 R - - - 10 - - - -
 
Date/Time
WST
Temp

°C
Wind Pressure Rain
since 9am
mm
Weather Cloud Vis
km
Sea
Height
m
Swell
Dir
 
Speed
knots
Gust
knots
hPa Trend Height
m
Period
s
Dir
27/11:30pm 12.2 N 5 6 1022.3 - - - - 10 - - - -
27/11:00pm 12.5 N 5 6 1022.3 - - - - 10 - - - -

Other Formats:

Comma delimited format used in spreadsheet applications
http://www.bom.gov.au/fwo/IDW60701/IDW60701.94638.axf

JavaScript Object Notation format (JSON) in row-major order
http://www.bom.gov.au/fwo/IDW60701/IDW60701.94638.json